createdAt,value
2018-08-10T00:01:45.379Z,65.91
2018-08-10T00:05:10.750Z,65.52
2018-08-10T00:08:35.250Z,64.39
2018-08-10T00:11:59.850Z,64.70
2018-08-10T00:15:24.439Z,65.40
2018-08-10T00:18:48.846Z,64.79
2018-08-10T00:22:13.330Z,64.80
2018-08-10T00:25:37.869Z,63.69
2018-08-10T00:29:02.690Z,64.44
2018-08-10T00:32:27.188Z,65.00
2018-08-10T00:35:51.631Z,64.95
2018-08-10T00:39:16.056Z,65.21
2018-08-10T00:42:41.127Z,64.71
2018-08-10T00:46:05.778Z,65.75
2018-08-10T00:49:30.336Z,65.88
2018-08-10T00:52:54.804Z,65.15
2018-08-10T00:56:19.296Z,64.96
2018-08-10T00:59:43.774Z,64.73
2018-08-10T01:03:08.234Z,65.79
2018-08-10T01:06:32.711Z,65.42
2018-08-10T01:09:57.113Z,65.40
2018-08-10T01:13:21.624Z,65.38
2018-08-10T01:16:46.028Z,66.64
2018-08-10T01:20:18.143Z,66.10
2018-08-10T01:23:42.557Z,66.76
2018-08-10T01:27:11.232Z,66.43
2018-08-10T01:30:36.392Z,66.71
2018-08-10T01:34:00.761Z,65.57
2018-08-10T01:37:25.181Z,67.01
2018-08-10T01:40:49.643Z,66.97
2018-08-10T01:44:14.077Z,66.94
2018-08-10T01:47:38.556Z,66.23
2018-08-10T01:51:02.994Z,66.62
2018-08-10T01:54:27.406Z,66.56
2018-08-10T01:57:51.855Z,66.87
2018-08-10T02:01:16.289Z,67.65
2018-08-10T02:04:40.708Z,66.89
2018-08-10T02:08:05.167Z,67.55
2018-08-10T02:11:29.564Z,67.96
2018-08-10T02:14:53.983Z,68.32
2018-08-10T02:18:18.418Z,68.55
2018-08-10T02:21:42.888Z,68.04
2018-08-10T02:25:09.029Z,68.81
2018-08-10T02:28:33.490Z,68.70
2018-08-10T02:31:57.927Z,69.09
2018-08-10T02:35:22.384Z,68.82
2018-08-10T02:38:46.799Z,69.76
2018-08-10T02:42:11.213Z,68.80
2018-08-10T02:45:35.690Z,70.25
2018-08-10T02:49:00.085Z,70.50
2018-08-10T02:52:24.827Z,70.94
2018-08-10T02:55:49.267Z,71.47
2018-08-10T02:59:13.734Z,72.66
2018-08-10T03:02:38.165Z,72.53
2018-08-10T03:06:02.620Z,72.24
2018-08-10T03:09:27.113Z,73.08
2018-08-10T03:12:51.553Z,72.62
2018-08-10T03:16:15.964Z,72.33
2018-08-10T03:19:40.410Z,71.64
2018-08-10T03:23:04.882Z,72.89
2018-08-10T03:26:29.333Z,74.14
2018-08-10T03:29:53.765Z,73.71
2018-08-10T03:33:18.232Z,73.83
2018-08-10T03:36:42.778Z,74.57
2018-08-10T03:40:11.092Z,73.76
2018-08-10T03:43:35.515Z,73.82
2018-08-10T03:46:59.925Z,74.67
2018-08-10T03:50:24.365Z,74.95
2018-08-10T03:53:48.811Z,74.44
2018-08-10T03:57:13.264Z,73.67
2018-08-10T04:00:37.720Z,73.30
2018-08-10T04:04:02.318Z,73.72
2018-08-10T04:07:26.772Z,72.90
2018-08-10T04:10:51.225Z,73.02
2018-08-10T04:14:15.660Z,73.29
2018-08-10T04:17:40.069Z,73.22
2018-08-10T04:21:04.570Z,73.79
2018-08-10T04:24:29.060Z,72.77
2018-08-10T04:27:53.557Z,73.22
2018-08-10T04:31:18.049Z,73.60
2018-08-10T04:34:42.533Z,73.77
2018-08-10T04:38:07.113Z,74.15
2018-08-10T04:41:31.557Z,73.87
2018-08-10T04:44:56.043Z,73.76
2018-08-10T04:48:20.531Z,73.86
2018-08-10T04:51:44.956Z,72.99
2018-08-10T04:55:09.464Z,74.03
2018-08-10T04:58:33.873Z,73.17
2018-08-10T05:01:58.345Z,73.28
2018-08-10T05:05:22.796Z,72.68
2018-08-10T05:08:47.225Z,72.09
2018-08-10T05:12:11.644Z,72.14
2018-08-10T05:15:36.130Z,72.38
2018-08-10T05:19:00.533Z,71.85
2018-08-10T05:22:24.986Z,72.37
2018-08-10T05:25:49.457Z,71.58
2018-08-10T05:29:13.915Z,71.52
2018-08-10T05:32:38.344Z,71.76
2018-08-10T05:36:02.805Z,70.91
2018-08-10T05:39:27.264Z,70.41
2018-08-10T05:42:51.702Z,69.97
2018-08-10T05:46:16.225Z,71.46
2018-08-10T05:49:40.591Z,69.83
2018-08-10T05:53:05.041Z,69.04
2018-08-10T05:56:29.478Z,69.39
2018-08-10T05:59:53.905Z,68.79
2018-08-10T06:03:18.367Z,68.30
2018-08-10T06:06:42.776Z,67.50
2018-08-10T06:10:09.109Z,66.46
2018-08-10T06:13:33.626Z,65.99
2018-08-10T06:16:58.135Z,66.37
2018-08-10T06:20:22.545Z,66.65
2018-08-10T06:23:46.977Z,65.79
2018-08-10T06:27:11.497Z,65.22
2018-08-10T06:30:35.939Z,65.20
2018-08-10T06:34:00.445Z,64.27
2018-08-10T06:37:24.789Z,63.72
2018-08-10T06:40:49.179Z,63.54
2018-08-10T06:44:13.596Z,64.51
2018-08-10T06:47:38.521Z,64.83
2018-08-10T06:51:02.981Z,64.16
2018-08-10T06:54:27.424Z,64.18
2018-08-10T06:57:51.797Z,64.04
2018-08-10T07:01:16.181Z,64.00
2018-08-10T07:04:40.635Z,62.50
2018-08-10T07:08:05.040Z,61.93
2018-08-10T07:11:29.445Z,62.24
2018-08-10T07:14:53.888Z,61.90
2018-08-10T07:18:18.375Z,61.05
2018-08-10T07:21:42.830Z,59.85
2018-08-10T07:25:07.897Z,59.63
2018-08-10T07:28:32.304Z,59.13
2018-08-10T07:31:56.786Z,60.24
2018-08-10T07:35:21.220Z,59.07
2018-08-10T07:38:45.644Z,59.26
2018-08-10T07:42:10.078Z,58.68
2018-08-10T07:45:34.523Z,58.68
2018-08-10T07:48:59.142Z,56.93
2018-08-10T07:52:24.115Z,56.68
2018-08-10T07:55:48.584Z,56.79
2018-08-10T07:59:13.085Z,57.19
2018-08-10T08:02:37.886Z,56.67
2018-08-10T08:06:02.325Z,56.11
2018-08-10T08:09:26.804Z,55.68
2018-08-10T08:12:51.326Z,53.68
2018-08-10T08:16:15.783Z,52.52
2018-08-10T08:19:40.349Z,53.36
2018-08-10T08:23:05.700Z,53.00
2018-08-10T08:26:30.292Z,52.65
2018-08-10T08:29:54.781Z,50.82
2018-08-10T08:33:19.338Z,51.49
2018-08-10T08:36:43.841Z,51.98
2018-08-10T08:40:16.681Z,48.96
2018-08-10T08:46:04.660Z,48.36
2018-08-10T08:49:29.061Z,48.98
2018-08-10T08:52:53.546Z,47.72
2018-08-10T08:56:19.505Z,45.91
2018-08-10T08:59:43.992Z,47.47
2018-08-10T09:03:19.263Z,48.39
2018-08-10T09:06:43.716Z,46.84
2018-08-10T09:10:15.632Z,46.71
2018-08-10T09:14:54.503Z,46.08
2018-08-10T09:18:19.041Z,45.45
2018-08-10T09:25:12.005Z,44.82
2018-08-10T09:28:36.426Z,45.54
2018-08-10T09:32:00.859Z,43.95
2018-08-10T09:35:25.369Z,43.39
2018-08-10T09:38:49.786Z,43.18
2018-08-10T09:42:14.304Z,43.89
2018-08-10T09:45:38.723Z,42.34
2018-08-10T09:49:03.122Z,42.83
2018-08-10T09:52:27.604Z,40.18
2018-08-10T09:55:52.082Z,39.93
2018-08-10T09:59:16.520Z,38.34
2018-08-10T10:02:45.047Z,38.91
2018-08-10T10:06:09.537Z,38.59
2018-08-10T10:09:33.999Z,37.29
2018-08-10T10:12:58.750Z,37.13
2018-08-10T10:16:23.206Z,38.77
2018-08-10T10:19:47.660Z,38.93
2018-08-10T10:23:12.193Z,37.20
2018-08-10T10:26:36.634Z,35.52
2018-08-10T10:30:01.136Z,35.17
2018-08-10T10:33:26.995Z,35.68
2018-08-10T10:36:51.518Z,35.03
2018-08-10T10:40:15.900Z,31.72
2018-08-10T10:43:40.305Z,26.90
2018-08-10T10:47:04.823Z,26.68
2018-08-10T10:50:29.283Z,25.46
2018-08-10T10:53:53.709Z,26.98
2018-08-10T10:57:18.274Z,27.90
2018-08-10T11:00:42.792Z,26.60
2018-08-10T11:04:07.274Z,24.40
2018-08-10T11:07:31.751Z,23.17
2018-08-10T11:10:56.146Z,22.31
2018-08-10T11:14:20.650Z,22.92
2018-08-10T11:17:45.060Z,21.79
2018-08-10T11:21:09.620Z,19.21
2018-08-10T11:24:34.097Z,20.23
2018-08-10T11:27:58.595Z,20.38
2018-08-10T11:31:23.054Z,21.78
2018-08-10T11:34:47.494Z,23.00
2018-08-10T11:38:11.947Z,23.42
2018-08-10T11:41:36.450Z,22.49
2018-08-10T11:45:01.098Z,23.83
2018-08-10T11:48:25.504Z,22.90
2018-08-10T11:51:49.988Z,20.88
2018-08-10T11:55:15.290Z,18.69
2018-08-10T11:58:39.719Z,19.05
2018-08-10T12:02:04.228Z,18.25
2018-08-10T12:05:28.698Z,20.25
2018-08-10T12:08:53.114Z,21.66
2018-08-10T12:12:17.543Z,21.23
2018-08-10T12:15:42.023Z,23.04
2018-08-10T12:19:06.557Z,23.82
2018-08-10T12:22:31.016Z,22.79
2018-08-10T12:25:55.478Z,24.27
2018-08-10T12:29:19.978Z,23.88
2018-08-10T12:32:44.447Z,24.70
2018-08-10T12:36:09.749Z,22.09
2018-08-10T12:39:34.156Z,19.36
2018-08-10T12:42:58.584Z,21.00
2018-08-10T12:46:23.079Z,22.55
2018-08-10T12:49:47.503Z,22.73
2018-08-10T12:53:11.998Z,22.53
2018-08-10T12:56:36.452Z,21.24
2018-08-10T13:00:00.937Z,19.89
2018-08-10T13:03:25.404Z,19.63
2018-08-10T13:06:49.844Z,20.34
2018-08-10T13:10:14.266Z,21.54
2018-08-10T13:13:38.648Z,21.52
2018-08-10T13:17:03.096Z,22.27
2018-08-10T13:20:27.579Z,23.88
2018-08-10T13:23:52.194Z,25.08
2018-08-10T13:27:16.649Z,23.74
2018-08-10T13:30:41.148Z,19.79
2018-08-10T13:34:05.789Z,19.98
2018-08-10T13:37:30.354Z,19.71
2018-08-10T13:40:54.857Z,18.74
2018-08-10T13:44:19.313Z,17.10
2018-08-10T13:47:43.897Z,17.37
2018-08-10T13:51:08.452Z,19.59
2018-08-10T13:54:33.022Z,22.23
2018-08-10T13:57:57.608Z,24.17
2018-08-10T14:01:22.028Z,24.16
2018-08-10T14:04:46.458Z,19.77
2018-08-10T14:08:10.949Z,21.24
2018-08-10T14:11:35.592Z,21.27
2018-08-10T14:15:02.193Z,20.74
2018-08-10T14:18:26.639Z,20.91
2018-08-10T14:21:51.089Z,21.17
2018-08-10T14:25:15.553Z,24.96
2018-08-10T14:28:39.999Z,22.10
2018-08-10T14:32:04.444Z,19.83
2018-08-10T14:35:28.892Z,18.93
2018-08-10T14:38:53.399Z,18.54
2018-08-10T14:42:18.403Z,19.76
2018-08-10T14:45:42.868Z,19.59
2018-08-10T14:49:08.478Z,18.95
2018-08-10T14:52:32.934Z,19.90
2018-08-10T14:55:57.426Z,18.50
2018-08-10T14:59:21.912Z,18.40
2018-08-10T15:02:46.679Z,17.71
2018-08-10T15:06:11.038Z,18.16
2018-08-10T15:09:35.563Z,17.42
2018-08-10T15:13:00.105Z,17.41
2018-08-10T15:16:24.424Z,19.20
2018-08-10T15:19:48.877Z,19.17
2018-08-10T15:23:13.371Z,17.82
2018-08-10T15:26:38.112Z,18.17
2018-08-10T15:30:02.589Z,17.39
2018-08-10T15:33:27.187Z,17.12
2018-08-10T15:36:51.648Z,15.72
2018-08-10T15:40:19.357Z,17.58
2018-08-10T15:43:43.865Z,16.83
2018-08-10T15:47:08.379Z,19.39
2018-08-10T15:50:32.825Z,18.69
2018-08-10T15:53:57.280Z,22.25
2018-08-10T15:57:21.691Z,21.87
2018-08-10T16:00:46.127Z,19.48
2018-08-10T16:04:10.649Z,19.32
2018-08-10T16:07:35.039Z,19.87
2018-08-10T16:10:59.494Z,19.07
2018-08-10T16:14:23.992Z,19.74
2018-08-10T16:17:48.490Z,18.93
2018-08-10T16:21:13.037Z,19.13
2018-08-10T16:24:37.439Z,19.33
2018-08-10T16:28:01.928Z,17.92
2018-08-10T16:31:27.248Z,19.98
2018-08-10T16:34:51.669Z,20.54
2018-08-10T16:38:16.114Z,21.48
2018-08-10T16:41:40.589Z,22.50
2018-08-10T16:45:05.425Z,22.75
2018-08-10T16:48:29.837Z,22.98
2018-08-10T16:51:54.296Z,23.80
2018-08-10T16:55:19.907Z,23.17
2018-08-10T16:58:44.381Z,23.93
2018-08-10T17:02:09.924Z,22.16
2018-08-10T17:05:34.813Z,23.49
2018-08-10T17:08:59.288Z,24.05
2018-08-10T17:12:23.788Z,26.23
2018-08-10T17:15:48.327Z,26.00
2018-08-10T17:19:12.835Z,25.61
2018-08-10T17:22:37.270Z,26.88
2018-08-10T17:26:01.806Z,26.58
2018-08-10T17:29:26.296Z,27.60
2018-08-10T17:32:50.814Z,27.23
2018-08-10T17:36:15.266Z,26.90
2018-08-10T17:39:39.676Z,27.50
2018-08-10T17:43:04.260Z,27.67
2018-08-10T17:46:28.692Z,27.38
2018-08-10T17:49:53.187Z,27.18
2018-08-10T17:53:17.668Z,27.73
2018-08-10T17:56:42.113Z,27.81
2018-08-10T18:00:10.166Z,27.74
2018-08-10T18:03:34.618Z,27.99
2018-08-10T18:06:59.135Z,28.98
2018-08-10T18:10:23.692Z,29.51
2018-08-10T18:13:48.169Z,30.00
2018-08-10T18:17:12.637Z,30.29
2018-08-10T18:20:38.031Z,29.29
2018-08-10T18:24:02.491Z,29.60
2018-08-10T18:27:27.084Z,30.69
2018-08-10T18:30:51.543Z,31.54
2018-08-10T18:34:16.138Z,31.28
2018-08-10T18:37:41.545Z,31.22
2018-08-10T18:41:20.210Z,30.44
2018-08-10T18:44:45.335Z,30.20
2018-08-10T18:48:10.199Z,31.37
2018-08-10T18:51:34.689Z,31.12
2018-08-10T18:55:00.187Z,31.69
2018-08-10T18:58:25.386Z,31.67
2018-08-10T19:01:50.994Z,31.23
2018-08-10T19:05:16.741Z,31.90
2018-08-10T19:08:42.138Z,31.80
2018-08-10T19:12:07.352Z,31.91
2018-08-10T19:15:31.856Z,32.48
2018-08-10T19:18:56.440Z,32.45
2018-08-10T19:22:21.284Z,33.13
2018-08-10T19:25:46.196Z,33.21
2018-08-10T19:29:12.617Z,33.58
2018-08-10T19:32:37.078Z,33.63
2018-08-10T19:36:01.851Z,33.28
2018-08-10T19:39:26.988Z,33.69
2018-08-10T19:42:51.995Z,33.50
2018-08-10T19:46:16.800Z,33.00
2018-08-10T19:49:42.067Z,33.13
2018-08-10T19:53:06.661Z,34.01
2018-08-10T19:56:33.154Z,33.62
2018-08-10T19:59:58.166Z,33.66
2018-08-10T20:03:23.777Z,34.35
2018-08-10T20:06:49.501Z,33.51
2018-08-10T20:10:15.974Z,34.11
2018-08-10T20:13:41.343Z,33.42
2018-08-10T20:17:07.720Z,33.60
2018-08-10T20:20:32.608Z,34.49
2018-08-10T20:23:57.728Z,33.75
2018-08-10T20:27:22.430Z,33.68
2018-08-10T20:30:47.110Z,33.98
2018-08-10T20:34:13.114Z,34.38
2018-08-10T20:37:38.543Z,34.65
2018-08-10T20:41:04.039Z,34.20
2018-08-10T20:44:29.545Z,34.67
2018-08-10T20:47:54.285Z,34.86
2018-08-10T20:51:19.594Z,34.53
2018-08-10T20:54:48.001Z,34.80
2018-08-10T20:58:13.155Z,35.50
2018-08-10T21:01:38.955Z,34.79
2018-08-10T21:05:04.849Z,34.92
2018-08-10T21:08:29.702Z,35.03
2018-08-10T21:11:54.759Z,35.99
2018-08-10T21:15:20.993Z,35.10
2018-08-10T21:18:45.505Z,35.94
2018-08-10T21:22:10.188Z,36.17
2018-08-10T21:25:35.144Z,36.02
2018-08-10T21:29:00.192Z,35.53
2018-08-10T21:32:24.940Z,35.74
2018-08-10T21:35:49.452Z,35.98
2018-08-10T21:39:14.324Z,36.49
2018-08-10T21:42:40.402Z,35.87
2018-08-10T21:46:05.984Z,35.87
2018-08-10T21:49:30.509Z,35.96
2018-08-10T21:52:55.652Z,35.53
2018-08-10T21:56:20.420Z,36.48
2018-08-10T21:59:44.973Z,36.09
2018-08-10T22:03:10.726Z,36.70
2018-08-10T22:06:35.564Z,36.44
2018-08-10T22:10:00.497Z,36.72
2018-08-10T22:13:30.429Z,37.89
2018-08-10T22:17:00.039Z,37.50
2018-08-10T22:20:24.489Z,37.55
2018-08-10T22:23:48.999Z,38.09
2018-08-10T22:27:13.514Z,38.26
2018-08-10T22:30:38.080Z,38.47
2018-08-10T22:34:02.567Z,38.20
2018-08-10T22:37:27.052Z,38.13
2018-08-10T22:40:51.513Z,38.87
2018-08-10T22:44:15.987Z,38.60
2018-08-10T22:47:40.435Z,38.73
2018-08-10T22:51:04.980Z,39.45
2018-08-10T22:54:29.449Z,39.24
2018-08-10T22:57:53.994Z,39.58
2018-08-10T23:01:18.383Z,39.13
2018-08-10T23:04:44.067Z,39.89
2018-08-10T23:08:08.839Z,39.94
2018-08-10T23:11:33.304Z,40.33
2018-08-10T23:14:57.808Z,40.00
2018-08-10T23:18:22.307Z,39.99
2018-08-10T23:21:46.740Z,39.76
2018-08-10T23:25:13.622Z,40.24
2018-08-10T23:28:38.098Z,41.14
2018-08-10T23:32:02.593Z,40.89
2018-08-10T23:35:27.088Z,41.51
2018-08-10T23:38:51.474Z,40.97
2018-08-10T23:42:15.971Z,40.93
2018-08-10T23:45:40.354Z,41.20
2018-08-10T23:49:05.067Z,41.29
2018-08-10T23:52:29.490Z,40.90
2018-08-10T23:56:00.551Z,41.02
2018-08-10T23:59:25.220Z,41.33
